sensor_id;sensor_type;location;lat;lon;timestamp;P1;durP1;ratioP1;P2;durP2;ratioP2
73557;SDS011;61829;53.286;10.434;2023-01-29T00:00:00;22.75;;;10.02;;
73557;SDS011;61829;53.286;10.434;2023-01-29T00:02:27;18.90;;;9.80;;
73557;SDS011;61829;53.286;10.434;2023-01-29T00:04:53;21.67;;;9.40;;
73557;SDS011;61829;53.286;10.434;2023-01-29T00:07:20;18.42;;;9.65;;
73557;SDS011;61829;53.286;10.434;2023-01-29T00:09:45;17.08;;;8.65;;
73557;SDS011;61829;53.286;10.434;2023-01-29T00:12:12;25.42;;;9.80;;
73557;SDS011;61829;53.286;10.434;2023-01-29T00:14:38;23.88;;;10.60;;
73557;SDS011;61829;53.286;10.434;2023-01-29T00:17:04;18.77;;;9.63;;
73557;SDS011;61829;53.286;10.434;2023-01-29T00:19:30;19.55;;;9.90;;
73557;SDS011;61829;53.286;10.434;2023-01-29T00:21:56;23.23;;;10.30;;
73557;SDS011;61829;53.286;10.434;2023-01-29T00:24:22;22.50;;;10.02;;
73557;SDS011;61829;53.286;10.434;2023-01-29T00:26:48;17.45;;;9.35;;
73557;SDS011;61829;53.286;10.434;2023-01-29T00:29:14;20.90;;;10.00;;
73557;SDS011;61829;53.286;10.434;2023-01-29T00:31:43;17.75;;;8.80;;
73557;SDS011;61829;53.286;10.434;2023-01-29T00:34:10;20.30;;;9.32;;
73557;SDS011;61829;53.286;10.434;2023-01-29T00:36:36;19.15;;;9.48;;
73557;SDS011;61829;53.286;10.434;2023-01-29T00:39:02;20.42;;;10.32;;
73557;SDS011;61829;53.286;10.434;2023-01-29T00:41:35;19.92;;;9.73;;
73557;SDS011;61829;53.286;10.434;2023-01-29T00:44:20;17.48;;;8.68;;
73557;SDS011;61829;53.286;10.434;2023-01-29T00:47:05;21.73;;;10.57;;
73557;SDS011;61829;53.286;10.434;2023-01-29T00:50:10;23.00;;;9.90;;
73557;SDS011;61829;53.286;10.434;2023-01-29T00:52:37;22.42;;;11.20;;
73557;SDS011;61829;53.286;10.434;2023-01-29T00:55:05;24.95;;;10.30;;
73557;SDS011;61829;53.286;10.434;2023-01-29T00:57:33;19.98;;;9.95;;
73557;SDS011;61829;53.286;10.434;2023-01-29T01:00:00;26.38;;;10.60;;
73557;SDS011;61829;53.286;10.434;2023-01-29T01:02:27;21.80;;;10.77;;
73557;SDS011;61829;53.286;10.434;2023-01-29T01:05:12;19.95;;;8.95;;
73557;SDS011;61829;53.286;10.434;2023-01-29T01:07:43;25.27;;;10.38;;
73557;SDS011;61829;53.286;10.434;2023-01-29T01:10:15;24.85;;;10.75;;
73557;SDS011;61829;53.286;10.434;2023-01-29T01:12:53;22.50;;;9.90;;
73557;SDS011;61829;53.286;10.434;2023-01-29T01:15:26;20.02;;;10.20;;
73557;SDS011;61829;53.286;10.434;2023-01-29T01:17:57;21.73;;;10.43;;
73557;SDS011;61829;53.286;10.434;2023-01-29T01:20:25;21.38;;;10.82;;
73557;SDS011;61829;53.286;10.434;2023-01-29T01:22:53;24.67;;;10.20;;
73557;SDS011;61829;53.286;10.434;2023-01-29T01:25:20;21.65;;;10.38;;
73557;SDS011;61829;53.286;10.434;2023-01-29T01:27:51;23.42;;;10.52;;
73557;SDS011;61829;53.286;10.434;2023-01-29T01:30:17;21.05;;;10.50;;
73557;SDS011;61829;53.286;10.434;2023-01-29T01:32:45;22.40;;;9.70;;
73557;SDS011;61829;53.286;10.434;2023-01-29T01:35:11;21.85;;;10.20;;
73557;SDS011;61829;53.286;10.434;2023-01-29T01:37:39;22.50;;;11.30;;
73557;SDS011;61829;53.286;10.434;2023-01-29T01:40:08;19.00;;;10.27;;
73557;SDS011;61829;53.286;10.434;2023-01-29T01:42:43;23.48;;;9.98;;
73557;SDS011;61829;53.286;10.434;2023-01-29T01:45:24;24.35;;;10.90;;
73557;SDS011;61829;53.286;10.434;2023-01-29T01:50:34;19.70;;;9.98;;
73557;SDS011;61829;53.286;10.434;2023-01-29T01:53:08;21.05;;;9.52;;
73557;SDS011;61829;53.286;10.434;2023-01-29T01:55:42;19.02;;;9.48;;
73557;SDS011;61829;53.286;10.434;2023-01-29T01:58:15;19.60;;;9.38;;
73557;SDS011;61829;53.286;10.434;2023-01-29T02:04:58;21.45;;;8.93;;
73557;SDS011;61829;53.286;10.434;2023-01-29T02:07:45;19.95;;;9.65;;
73557;SDS011;61829;53.286;10.434;2023-01-29T02:10:37;15.93;;;7.78;;
73557;SDS011;61829;53.286;10.434;2023-01-29T02:13:08;21.63;;;10.48;;
73557;SDS011;61829;53.286;10.434;2023-01-29T02:15:35;19.92;;;9.15;;
73557;SDS011;61829;53.286;10.434;2023-01-29T02:18:02;19.55;;;9.02;;
73557;SDS011;61829;53.286;10.434;2023-01-29T02:20:29;19.88;;;9.30;;
73557;SDS011;61829;53.286;10.434;2023-01-29T02:39:50;23.15;;;10.23;;
73557;SDS011;61829;53.286;10.434;2023-01-29T02:45:13;18.95;;;9.68;;
73557;SDS011;61829;53.286;10.434;2023-01-29T02:47:53;20.33;;;10.38;;
73557;SDS011;61829;53.286;10.434;2023-01-29T02:58:18;18.58;;;9.85;;
73557;SDS011;61829;53.286;10.434;2023-01-29T03:01:17;20.13;;;9.68;;
73557;SDS011;61829;53.286;10.434;2023-01-29T03:04:10;20.83;;;9.32;;
73557;SDS011;61829;53.286;10.434;2023-01-29T03:06:42;20.10;;;10.10;;
73557;SDS011;61829;53.286;10.434;2023-01-29T03:09:25;24.30;;;10.23;;
73557;SDS011;61829;53.286;10.434;2023-01-29T03:12:02;18.80;;;9.93;;
73557;SDS011;61829;53.286;10.434;2023-01-29T03:14:44;17.80;;;8.40;;
73557;SDS011;61829;53.286;10.434;2023-01-29T03:17:34;22.25;;;9.75;;
73557;SDS011;61829;53.286;10.434;2023-01-29T03:20:07;19.95;;;9.63;;
73557;SDS011;61829;53.286;10.434;2023-01-29T03:22:39;20.70;;;9.70;;
73557;SDS011;61829;53.286;10.434;2023-01-29T03:25:08;20.80;;;10.85;;
73557;SDS011;61829;53.286;10.434;2023-01-29T03:27:56;24.23;;;10.60;;
73557;SDS011;61829;53.286;10.434;2023-01-29T03:30:45;22.00;;;9.80;;
73557;SDS011;61829;53.286;10.434;2023-01-29T03:36:41;20.40;;;9.13;;
73557;SDS011;61829;53.286;10.434;2023-01-29T03:40:26;17.50;;;8.23;;
73557;SDS011;61829;53.286;10.434;2023-01-29T05:55:55;19.15;;;8.38;;
73557;SDS011;61829;53.286;10.434;2023-01-29T05:58:24;24.02;;;11.18;;
73557;SDS011;61829;53.286;10.434;2023-01-29T06:00:49;25.67;;;10.95;;
73557;SDS011;61829;53.286;10.434;2023-01-29T06:03:15;20.83;;;9.85;;
73557;SDS011;61829;53.286;10.434;2023-01-29T06:05:41;22.48;;;10.85;;
73557;SDS011;61829;53.286;10.434;2023-01-29T06:08:07;24.65;;;10.15;;
73557;SDS011;61829;53.286;10.434;2023-01-29T06:10:33;25.67;;;12.05;;
73557;SDS011;61829;53.286;10.434;2023-01-29T06:12:59;21.70;;;10.15;;
73557;SDS011;61829;53.286;10.434;2023-01-29T06:15:25;22.05;;;10.73;;
73557;SDS011;61829;53.286;10.434;2023-01-29T06:17:53;22.13;;;9.88;;
73557;SDS011;61829;53.286;10.434;2023-01-29T06:20:21;22.98;;;10.70;;
73557;SDS011;61829;53.286;10.434;2023-01-29T06:22:48;24.10;;;10.85;;
73557;SDS011;61829;53.286;10.434;2023-01-29T06:25:14;20.55;;;10.35;;
73557;SDS011;61829;53.286;10.434;2023-01-29T06:27:40;20.60;;;9.65;;
73557;SDS011;61829;53.286;10.434;2023-01-29T06:30:06;22.90;;;11.60;;
73557;SDS011;61829;53.286;10.434;2023-01-29T06:32:35;20.08;;;10.48;;
73557;SDS011;61829;53.286;10.434;2023-01-29T06:35:04;22.75;;;11.07;;
73557;SDS011;61829;53.286;10.434;2023-01-29T06:37:30;24.02;;;10.82;;
73557;SDS011;61829;53.286;10.434;2023-01-29T06:40:02;24.35;;;11.73;;
73557;SDS011;61829;53.286;10.434;2023-01-29T06:42:29;26.45;;;11.52;;
73557;SDS011;61829;53.286;10.434;2023-01-29T06:44:55;25.17;;;11.32;;
73557;SDS011;61829;53.286;10.434;2023-01-29T06:47:22;24.13;;;10.32;;
73557;SDS011;61829;53.286;10.434;2023-01-29T06:49:49;23.42;;;10.38;;
73557;SDS011;61829;53.286;10.434;2023-01-29T06:52:15;24.02;;;10.48;;
73557;SDS011;61829;53.286;10.434;2023-01-29T06:54:40;20.98;;;11.05;;
73557;SDS011;61829;53.286;10.434;2023-01-29T06:57:06;24.10;;;10.88;;
73557;SDS011;61829;53.286;10.434;2023-01-29T06:59:32;20.83;;;10.07;;
73557;SDS011;61829;53.286;10.434;2023-01-29T07:01:59;20.23;;;10.27;;
73557;SDS011;61829;53.286;10.434;2023-01-29T07:04:25;24.88;;;11.27;;
73557;SDS011;61829;53.286;10.434;2023-01-29T07:06:51;20.15;;;9.98;;
73557;SDS011;61829;53.286;10.434;2023-01-29T07:09:19;23.00;;;11.27;;
73557;SDS011;61829;53.286;10.434;2023-01-29T07:11:45;24.50;;;10.98;;
73557;SDS011;61829;53.286;10.434;2023-01-29T07:14:12;21.55;;;10.00;;
73557;SDS011;61829;53.286;10.434;2023-01-29T07:16:38;22.33;;;11.10;;
73557;SDS011;61829;53.286;10.434;2023-01-29T07:19:03;19.50;;;10.38;;
73557;SDS011;61829;53.286;10.434;2023-01-29T07:21:29;20.75;;;10.07;;
73557;SDS011;61829;53.286;10.434;2023-01-29T07:23:55;21.27;;;10.30;;
73557;SDS011;61829;53.286;10.434;2023-01-29T07:26:21;27.17;;;11.32;;
73557;SDS011;61829;53.286;10.434;2023-01-29T07:28:50;17.50;;;8.95;;
73557;SDS011;61829;53.286;10.434;2023-01-29T07:31:16;22.75;;;10.27;;
73557;SDS011;61829;53.286;10.434;2023-01-29T07:33:42;17.80;;;9.02;;
73557;SDS011;61829;53.286;10.434;2023-01-29T07:36:10;22.48;;;10.68;;
73557;SDS011;61829;53.286;10.434;2023-01-29T07:38:36;22.70;;;9.77;;
73557;SDS011;61829;53.286;10.434;2023-01-29T07:41:02;23.20;;;10.82;;
73557;SDS011;61829;53.286;10.434;2023-01-29T07:43:28;26.17;;;10.55;;
73557;SDS011;61829;53.286;10.434;2023-01-29T07:45:54;21.20;;;10.82;;
73557;SDS011;61829;53.286;10.434;2023-01-29T07:48:20;20.38;;;9.70;;
73557;SDS011;61829;53.286;10.434;2023-01-29T07:50:53;20.20;;;10.35;;
73557;SDS011;61829;53.286;10.434;2023-01-29T07:53:20;21.02;;;9.43;;
73557;SDS011;61829;53.286;10.434;2023-01-29T07:55:48;19.70;;;10.38;;
73557;SDS011;61829;53.286;10.434;2023-01-29T08:00:41;22.15;;;10.23;;
73557;SDS011;61829;53.286;10.434;2023-01-29T08:03:12;25.85;;;11.48;;
73557;SDS011;61829;53.286;10.434;2023-01-29T08:05:41;23.00;;;11.23;;
73557;SDS011;61829;53.286;10.434;2023-01-29T08:08:07;26.02;;;11.38;;
73557;SDS011;61829;53.286;10.434;2023-01-29T08:10:36;28.92;;;12.05;;
73557;SDS011;61829;53.286;10.434;2023-01-29T08:13:04;24.60;;;11.68;;
73557;SDS011;61829;53.286;10.434;2023-01-29T08:15:31;24.23;;;11.38;;
73557;SDS011;61829;53.286;10.434;2023-01-29T08:17:59;24.40;;;11.95;;
73557;SDS011;61829;53.286;10.434;2023-01-29T08:20:26;20.65;;;10.48;;
73557;SDS011;61829;53.286;10.434;2023-01-29T08:22:59;24.95;;;11.88;;
73557;SDS011;61829;53.286;10.434;2023-01-29T08:25:31;26.15;;;12.05;;
73557;SDS011;61829;53.286;10.434;2023-01-29T08:28:00;23.95;;;11.52;;
73557;SDS011;61829;53.286;10.434;2023-01-29T08:30:29;22.90;;;11.10;;
73557;SDS011;61829;53.286;10.434;2023-01-29T08:32:59;25.02;;;11.05;;
73557;SDS011;61829;53.286;10.434;2023-01-29T08:35:27;26.10;;;12.00;;
73557;SDS011;61829;53.286;10.434;2023-01-29T08:40:32;23.20;;;11.00;;
73557;SDS011;61829;53.286;10.434;2023-01-29T08:42:59;24.23;;;11.57;;
73557;SDS011;61829;53.286;10.434;2023-01-29T08:45:34;24.58;;;11.25;;
73557;SDS011;61829;53.286;10.434;2023-01-29T08:48:02;25.63;;;11.48;;
73557;SDS011;61829;53.286;10.434;2023-01-29T08:50:28;24.38;;;11.77;;
73557;SDS011;61829;53.286;10.434;2023-01-29T08:52:59;23.40;;;10.65;;
73557;SDS011;61829;53.286;10.434;2023-01-29T08:55:26;26.35;;;12.13;;
73557;SDS011;61829;53.286;10.434;2023-01-29T08:57:53;24.20;;;12.18;;
73557;SDS011;61829;53.286;10.434;2023-01-29T09:00:20;26.45;;;12.02;;
73557;SDS011;61829;53.286;10.434;2023-01-29T09:02:46;24.17;;;12.15;;
73557;SDS011;61829;53.286;10.434;2023-01-29T09:05:12;25.27;;;13.23;;
73557;SDS011;61829;53.286;10.434;2023-01-29T09:07:38;29.80;;;13.68;;
73557;SDS011;61829;53.286;10.434;2023-01-29T09:10:04;28.58;;;12.70;;
73557;SDS011;61829;53.286;10.434;2023-01-29T09:12:30;26.45;;;12.52;;
73557;SDS011;61829;53.286;10.434;2023-01-29T09:14:56;26.40;;;13.38;;
73557;SDS011;61829;53.286;10.434;2023-01-29T09:17:24;30.65;;;14.68;;
73557;SDS011;61829;53.286;10.434;2023-01-29T09:19:52;31.70;;;15.20;;
73557;SDS011;61829;53.286;10.434;2023-01-29T09:22:18;34.00;;;14.88;;
73557;SDS011;61829;53.286;10.434;2023-01-29T09:24:44;33.05;;;15.60;;
73557;SDS011;61829;53.286;10.434;2023-01-29T09:27:13;33.67;;;14.10;;
73557;SDS011;61829;53.286;10.434;2023-01-29T09:29:39;36.97;;;16.38;;
73557;SDS011;61829;53.286;10.434;2023-01-29T09:32:04;34.88;;;14.95;;
73557;SDS011;61829;53.286;10.434;2023-01-29T09:34:31;37.10;;;17.50;;
73557;SDS011;61829;53.286;10.434;2023-01-29T09:39:27;33.67;;;15.90;;
73557;SDS011;61829;53.286;10.434;2023-01-29T09:47:04;34.22;;;16.25;;
73557;SDS011;61829;53.286;10.434;2023-01-29T09:49:38;32.92;;;15.48;;
73557;SDS011;61829;53.286;10.434;2023-01-29T09:55:04;40.63;;;16.27;;
73557;SDS011;61829;53.286;10.434;2023-01-29T09:57:53;39.20;;;16.48;;
73557;SDS011;61829;53.286;10.434;2023-01-29T10:00:31;32.45;;;15.55;;
73557;SDS011;61829;53.286;10.434;2023-01-29T10:08:46;37.55;;;16.63;;
73557;SDS011;61829;53.286;10.434;2023-01-29T10:11:40;41.22;;;15.43;;
73557;SDS011;61829;53.286;10.434;2023-01-29T10:20:00;31.63;;;14.80;;
73557;SDS011;61829;53.286;10.434;2023-01-29T10:22:47;35.85;;;15.95;;
73557;SDS011;61829;53.286;10.434;2023-01-29T10:25:30;32.88;;;15.23;;
73557;SDS011;61829;53.286;10.434;2023-01-29T10:28:01;36.13;;;15.25;;
73557;SDS011;61829;53.286;10.434;2023-01-29T10:30:34;35.83;;;15.88;;
73557;SDS011;61829;53.286;10.434;2023-01-29T10:33:04;32.47;;;14.60;;
73557;SDS011;61829;53.286;10.434;2023-01-29T10:35:36;36.55;;;15.07;;
73557;SDS011;61829;53.286;10.434;2023-01-29T10:51:19;31.88;;;15.43;;
73557;SDS011;61829;53.286;10.434;2023-01-29T10:54:01;31.02;;;14.50;;
73557;SDS011;61829;53.286;10.434;2023-01-29T10:56:53;31.40;;;15.48;;
73557;SDS011;61829;53.286;10.434;2023-01-29T10:59:38;28.48;;;14.20;;
73557;SDS011;61829;53.286;10.434;2023-01-29T11:02:29;26.90;;;14.63;;
73557;SDS011;61829;53.286;10.434;2023-01-29T11:04:56;30.02;;;15.18;;
73557;SDS011;61829;53.286;10.434;2023-01-29T11:07:23;33.03;;;14.48;;
73557;SDS011;61829;53.286;10.434;2023-01-29T11:09:52;32.28;;;14.50;;
73557;SDS011;61829;53.286;10.434;2023-01-29T11:12:23;25.63;;;13.65;;
73557;SDS011;61829;53.286;10.434;2023-01-29T11:15:05;29.67;;;13.88;;
73557;SDS011;61829;53.286;10.434;2023-01-29T11:17:59;27.25;;;13.95;;
73557;SDS011;61829;53.286;10.434;2023-01-29T11:20:31;25.58;;;13.50;;
73557;SDS011;61829;53.286;10.434;2023-01-29T11:22:57;25.75;;;12.65;;
73557;SDS011;61829;53.286;10.434;2023-01-29T11:25:24;28.83;;;14.02;;
73557;SDS011;61829;53.286;10.434;2023-01-29T11:27:56;25.95;;;13.55;;
73557;SDS011;61829;53.286;10.434;2023-01-29T11:33:17;26.38;;;12.50;;
73557;SDS011;61829;53.286;10.434;2023-01-29T11:35:49;23.88;;;12.63;;
73557;SDS011;61829;53.286;10.434;2023-01-29T11:38:26;25.40;;;12.75;;
73557;SDS011;61829;53.286;10.434;2023-01-29T11:41:36;24.95;;;11.93;;
73557;SDS011;61829;53.286;10.434;2023-01-29T11:43:46;25.20;;;12.43;;
73557;SDS011;61829;53.286;10.434;2023-01-29T11:46:13;23.52;;;11.68;;
73557;SDS011;61829;53.286;10.434;2023-01-29T11:51:06;22.30;;;11.68;;
73557;SDS011;61829;53.286;10.434;2023-01-29T11:53:37;25.55;;;12.95;;
73557;SDS011;61829;53.286;10.434;2023-01-29T11:56:17;23.98;;;11.63;;
73557;SDS011;61829;53.286;10.434;2023-01-29T11:58:50;27.30;;;12.52;;
73557;SDS011;61829;53.286;10.434;2023-01-29T12:01:22;20.77;;;11.27;;
73557;SDS011;61829;53.286;10.434;2023-01-29T12:03:55;23.08;;;11.85;;
73557;SDS011;61829;53.286;10.434;2023-01-29T12:06:22;26.05;;;12.95;;
73557;SDS011;61829;53.286;10.434;2023-01-29T12:09:00;22.73;;;12.00;;
73557;SDS011;61829;53.286;10.434;2023-01-29T12:11:34;20.83;;;11.50;;
73557;SDS011;61829;53.286;10.434;2023-01-29T12:14:03;26.75;;;12.25;;
73557;SDS011;61829;53.286;10.434;2023-01-29T12:16:38;23.88;;;11.95;;
73557;SDS011;61829;53.286;10.434;2023-01-29T12:21:35;22.45;;;12.15;;
73557;SDS011;61829;53.286;10.434;2023-01-29T12:24:27;22.40;;;11.20;;
73557;SDS011;61829;53.286;10.434;2023-01-29T12:27:15;22.10;;;11.02;;
73557;SDS011;61829;53.286;10.434;2023-01-29T12:35:45;22.25;;;11.00;;
73557;SDS011;61829;53.286;10.434;2023-01-29T12:38:19;21.95;;;11.75;;
73557;SDS011;61829;53.286;10.434;2023-01-29T12:40:52;21.08;;;11.25;;
73557;SDS011;61829;53.286;10.434;2023-01-29T12:45:59;23.48;;;11.77;;
73557;SDS011;61829;53.286;10.434;2023-01-29T12:48:33;19.88;;;10.50;;
73557;SDS011;61829;53.286;10.434;2023-01-29T12:51:05;21.35;;;10.82;;
73557;SDS011;61829;53.286;10.434;2023-01-29T12:53:36;21.88;;;11.65;;
73557;SDS011;61829;53.286;10.434;2023-01-29T12:58:43;21.60;;;11.15;;
73557;SDS011;61829;53.286;10.434;2023-01-29T13:01:19;21.98;;;11.90;;
73557;SDS011;61829;53.286;10.434;2023-01-29T13:06:27;21.60;;;10.43;;
73557;SDS011;61829;53.286;10.434;2023-01-29T13:09:00;20.98;;;10.80;;
73557;SDS011;61829;53.286;10.434;2023-01-29T13:11:39;23.73;;;11.10;;
73557;SDS011;61829;53.286;10.434;2023-01-29T13:16:48;22.25;;;11.40;;
73557;SDS011;61829;53.286;10.434;2023-01-29T13:21:46;25.65;;;12.88;;
73557;SDS011;61829;53.286;10.434;2023-01-29T13:24:14;20.80;;;10.80;;
73557;SDS011;61829;53.286;10.434;2023-01-29T13:26:44;21.70;;;10.68;;
73557;SDS011;61829;53.286;10.434;2023-01-29T13:29:27;22.52;;;11.27;;
73557;SDS011;61829;53.286;10.434;2023-01-29T13:31:55;20.35;;;10.80;;
73557;SDS011;61829;53.286;10.434;2023-01-29T13:36:57;22.17;;;10.45;;
73557;SDS011;61829;53.286;10.434;2023-01-29T13:39:29;22.88;;;12.23;;
73557;SDS011;61829;53.286;10.434;2023-01-29T13:41:59;22.02;;;11.65;;
73557;SDS011;61829;53.286;10.434;2023-01-29T13:44:37;23.95;;;11.50;;
73557;SDS011;61829;53.286;10.434;2023-01-29T13:47:08;24.08;;;12.27;;
73557;SDS011;61829;53.286;10.434;2023-01-29T13:49:39;22.55;;;11.35;;
73557;SDS011;61829;53.286;10.434;2023-01-29T13:54:51;24.52;;;11.45;;
73557;SDS011;61829;53.286;10.434;2023-01-29T14:00:46;23.25;;;12.35;;
73557;SDS011;61829;53.286;10.434;2023-01-29T14:07:59;22.73;;;11.70;;
73557;SDS011;61829;53.286;10.434;2023-01-29T14:10:29;23.33;;;11.75;;
73557;SDS011;61829;53.286;10.434;2023-01-29T14:15:32;22.63;;;11.40;;
73557;SDS011;61829;53.286;10.434;2023-01-29T14:18:04;22.13;;;11.52;;
73557;SDS011;61829;53.286;10.434;2023-01-29T14:23:04;22.60;;;12.05;;
73557;SDS011;61829;53.286;10.434;2023-01-29T14:25:32;23.23;;;12.13;;
73557;SDS011;61829;53.286;10.434;2023-01-29T14:28:02;24.48;;;12.88;;
73557;SDS011;61829;53.286;10.434;2023-01-29T14:30:30;24.52;;;11.90;;
73557;SDS011;61829;53.286;10.434;2023-01-29T14:32:58;22.73;;;11.38;;
73557;SDS011;61829;53.286;10.434;2023-01-29T14:35:29;24.65;;;11.52;;
73557;SDS011;61829;53.286;10.434;2023-01-29T14:37:59;21.25;;;11.25;;
73557;SDS011;61829;53.286;10.434;2023-01-29T14:40:30;24.40;;;12.38;;
73557;SDS011;61829;53.286;10.434;2023-01-29T14:43:00;21.75;;;11.00;;
73557;SDS011;61829;53.286;10.434;2023-01-29T14:45:30;24.88;;;12.00;;
73557;SDS011;61829;53.286;10.434;2023-01-29T14:58:48;25.25;;;11.85;;
73557;SDS011;61829;53.286;10.434;2023-01-29T15:03:49;23.98;;;11.43;;
73557;SDS011;61829;53.286;10.434;2023-01-29T15:06:19;26.08;;;12.85;;
73557;SDS011;61829;53.286;10.434;2023-01-29T15:08:56;26.65;;;12.80;;
73557;SDS011;61829;53.286;10.434;2023-01-29T15:11:36;24.38;;;12.50;;
73557;SDS011;61829;53.286;10.434;2023-01-29T15:16:49;22.52;;;12.10;;
73557;SDS011;61829;53.286;10.434;2023-01-29T15:19:42;25.70;;;12.95;;
73557;SDS011;61829;53.286;10.434;2023-01-29T15:22:11;24.45;;;12.73;;
73557;SDS011;61829;53.286;10.434;2023-01-29T15:24:45;25.15;;;13.38;;
73557;SDS011;61829;53.286;10.434;2023-01-29T15:27:25;27.20;;;12.90;;
73557;SDS011;61829;53.286;10.434;2023-01-29T15:30:02;26.63;;;13.77;;
73557;SDS011;61829;53.286;10.434;2023-01-29T15:32:36;26.58;;;13.20;;
73557;SDS011;61829;53.286;10.434;2023-01-29T15:35:23;26.70;;;13.50;;
73557;SDS011;61829;53.286;10.434;2023-01-29T15:40:51;29.05;;;13.88;;
73557;SDS011;61829;53.286;10.434;2023-01-29T15:43:25;30.77;;;13.55;;
73557;SDS011;61829;53.286;10.434;2023-01-29T15:46:16;28.27;;;13.80;;
73557;SDS011;61829;53.286;10.434;2023-01-29T15:48:44;29.02;;;14.43;;
73557;SDS011;61829;53.286;10.434;2023-01-29T15:51:16;30.20;;;14.18;;
73557;SDS011;61829;53.286;10.434;2023-01-29T15:54:01;27.10;;;13.45;;
73557;SDS011;61829;53.286;10.434;2023-01-29T15:56:33;27.08;;;12.88;;
73557;SDS011;61829;53.286;10.434;2023-01-29T15:59:03;28.42;;;13.80;;
73557;SDS011;61829;53.286;10.434;2023-01-29T16:01:32;26.92;;;13.13;;
73557;SDS011;61829;53.286;10.434;2023-01-29T16:03:58;27.95;;;14.32;;
73557;SDS011;61829;53.286;10.434;2023-01-29T16:06:35;30.58;;;14.40;;
73557;SDS011;61829;53.286;10.434;2023-01-29T16:09:06;27.95;;;15.30;;
73557;SDS011;61829;53.286;10.434;2023-01-29T16:11:35;30.10;;;15.27;;
73557;SDS011;61829;53.286;10.434;2023-01-29T16:14:04;26.38;;;13.93;;
73557;SDS011;61829;53.286;10.434;2023-01-29T16:16:31;31.15;;;13.02;;
73557;SDS011;61829;53.286;10.434;2023-01-29T16:18:57;28.98;;;14.50;;
73557;SDS011;61829;53.286;10.434;2023-01-29T16:21:34;28.60;;;14.75;;
73557;SDS011;61829;53.286;10.434;2023-01-29T16:26:37;27.73;;;13.93;;
73557;SDS011;61829;53.286;10.434;2023-01-29T16:29:11;31.58;;;13.93;;
73557;SDS011;61829;53.286;10.434;2023-01-29T16:31:49;30.70;;;15.90;;
73557;SDS011;61829;53.286;10.434;2023-01-29T16:34:22;30.95;;;14.32;;
73557;SDS011;61829;53.286;10.434;2023-01-29T16:36:50;28.48;;;13.90;;
73557;SDS011;61829;53.286;10.434;2023-01-29T16:39:19;30.30;;;14.73;;
73557;SDS011;61829;53.286;10.434;2023-01-29T16:44:54;29.60;;;13.75;;
73557;SDS011;61829;53.286;10.434;2023-01-29T16:47:33;28.08;;;13.85;;
73557;SDS011;61829;53.286;10.434;2023-01-29T16:50:30;30.67;;;14.13;;
73557;SDS011;61829;53.286;10.434;2023-01-29T16:55:47;28.45;;;14.25;;
73557;SDS011;61829;53.286;10.434;2023-01-29T16:58:19;31.52;;;14.50;;
73557;SDS011;61829;53.286;10.434;2023-01-29T17:00:52;27.63;;;14.02;;
73557;SDS011;61829;53.286;10.434;2023-01-29T17:05:50;26.50;;;12.77;;
73557;SDS011;61829;53.286;10.434;2023-01-29T17:08:28;29.05;;;13.75;;
73557;SDS011;61829;53.286;10.434;2023-01-29T17:10:56;31.10;;;14.23;;
73557;SDS011;61829;53.286;10.434;2023-01-29T17:15:51;31.73;;;13.40;;
73557;SDS011;61829;53.286;10.434;2023-01-29T17:18:21;27.52;;;14.43;;
73557;SDS011;61829;53.286;10.434;2023-01-29T17:20:49;29.60;;;14.50;;
73557;SDS011;61829;53.286;10.434;2023-01-29T17:23:15;27.83;;;14.35;;
73557;SDS011;61829;53.286;10.434;2023-01-29T17:25:41;26.30;;;13.68;;
73557;SDS011;61829;53.286;10.434;2023-01-29T17:28:09;23.08;;;11.90;;
73557;SDS011;61829;53.286;10.434;2023-01-29T17:30:38;29.83;;;14.15;;
73557;SDS011;61829;53.286;10.434;2023-01-29T17:33:17;30.92;;;15.20;;
73557;SDS011;61829;53.286;10.434;2023-01-29T17:35:47;27.63;;;13.60;;
73557;SDS011;61829;53.286;10.434;2023-01-29T17:38:14;28.65;;;13.70;;
73557;SDS011;61829;53.286;10.434;2023-01-29T17:40:43;28.70;;;13.68;;
73557;SDS011;61829;53.286;10.434;2023-01-29T17:43:16;24.83;;;12.68;;
73557;SDS011;61829;53.286;10.434;2023-01-29T17:45:42;30.00;;;13.50;;
73557;SDS011;61829;53.286;10.434;2023-01-29T17:48:17;28.30;;;13.48;;
73557;SDS011;61829;53.286;10.434;2023-01-29T17:50:46;28.85;;;14.35;;
73557;SDS011;61829;53.286;10.434;2023-01-29T17:53:15;28.33;;;13.93;;
73557;SDS011;61829;53.286;10.434;2023-01-29T17:55:41;25.90;;;13.88;;
73557;SDS011;61829;53.286;10.434;2023-01-29T18:00:50;26.55;;;13.15;;
73557;SDS011;61829;53.286;10.434;2023-01-29T18:03:16;25.15;;;12.18;;
73557;SDS011;61829;53.286;10.434;2023-01-29T18:05:42;24.65;;;13.10;;
73557;SDS011;61829;53.286;10.434;2023-01-29T18:10:55;22.60;;;12.05;;
73557;SDS011;61829;53.286;10.434;2023-01-29T18:13:21;25.27;;;12.70;;
73557;SDS011;61829;53.286;10.434;2023-01-29T18:15:47;23.60;;;12.77;;
73557;SDS011;61829;53.286;10.434;2023-01-29T18:18:14;32.13;;;14.32;;
73557;SDS011;61829;53.286;10.434;2023-01-29T18:20:43;26.63;;;13.70;;
73557;SDS011;61829;53.286;10.434;2023-01-29T18:23:10;26.30;;;12.98;;
73557;SDS011;61829;53.286;10.434;2023-01-29T18:25:37;26.98;;;13.13;;
73557;SDS011;61829;53.286;10.434;2023-01-29T18:28:06;25.38;;;11.77;;
73557;SDS011;61829;53.286;10.434;2023-01-29T18:30:32;28.05;;;14.15;;
73557;SDS011;61829;53.286;10.434;2023-01-29T18:32:58;28.85;;;15.05;;
73557;SDS011;61829;53.286;10.434;2023-01-29T18:35:24;29.65;;;14.32;;
73557;SDS011;61829;53.286;10.434;2023-01-29T18:37:51;29.10;;;13.93;;
73557;SDS011;61829;53.286;10.434;2023-01-29T18:40:17;26.67;;;13.88;;
73557;SDS011;61829;53.286;10.434;2023-01-29T18:42:43;27.70;;;14.35;;
73557;SDS011;61829;53.286;10.434;2023-01-29T18:45:10;28.38;;;13.52;;
73557;SDS011;61829;53.286;10.434;2023-01-29T18:47:37;27.70;;;14.52;;
73557;SDS011;61829;53.286;10.434;2023-01-29T18:50:03;28.17;;;15.23;;
73557;SDS011;61829;53.286;10.434;2023-01-29T18:54:56;30.75;;;13.90;;
73557;SDS011;61829;53.286;10.434;2023-01-29T18:57:22;31.15;;;14.68;;
73557;SDS011;61829;53.286;10.434;2023-01-29T18:59:48;30.05;;;13.98;;
73557;SDS011;61829;53.286;10.434;2023-01-29T19:02:14;25.98;;;12.77;;
73557;SDS011;61829;53.286;10.434;2023-01-29T19:04:42;29.48;;;13.77;;
73557;SDS011;61829;53.286;10.434;2023-01-29T19:07:08;34.55;;;15.55;;
73557;SDS011;61829;53.286;10.434;2023-01-29T19:09:34;31.23;;;15.55;;
73557;SDS011;61829;53.286;10.434;2023-01-29T19:12:00;28.67;;;14.32;;
73557;SDS011;61829;53.286;10.434;2023-01-29T19:14:27;26.70;;;12.82;;
73557;SDS011;61829;53.286;10.434;2023-01-29T19:16:52;27.35;;;13.82;;
73557;SDS011;61829;53.286;10.434;2023-01-29T19:19:18;31.92;;;15.60;;
73557;SDS011;61829;53.286;10.434;2023-01-29T19:21:44;30.52;;;15.25;;
73557;SDS011;61829;53.286;10.434;2023-01-29T19:24:10;33.20;;;15.82;;
73557;SDS011;61829;53.286;10.434;2023-01-29T19:26:36;28.95;;;14.77;;
73557;SDS011;61829;53.286;10.434;2023-01-29T19:29:02;35.42;;;14.52;;